Time;durP1;ratioP1;P1;durP2;ratioP2;P2;SDS_P1;SDS_P2;PMS_P1;PMS_P2;Temp;Humidity;BMP_temperature;BMP_pressure;BME280_temperature;BME280_humidity;BME280_pressure;Samples;Min_cycle;Max_cycle;Signal;HPM_P1;HPM_P2
2021/07/17 00:00:09;;;;;;;;;;;;;;;15.98;84.31;100171.88;4974083;28;20295;-61
2021/07/17 00:02:34;;;;;;;;;;;;;;;16.04;83.85;100177.06;4974507;28;19910;-61
2021/07/17 00:04:59;;;;;;;;;;;;;;;16.06;83.93;100164.09;4974315;28;19918;-61
2021/07/17 00:07:24;;;;;;;;;;;;;;;15.93;84.18;100172.63;4972655;28;19918;-61
2021/07/17 00:09:50;;;;;;;;;;;;;;;15.96;84.11;100167.50;4974562;28;20276;-61
2021/07/17 00:12:18;;;;;;;;;;;;;;;15.97;83.96;100168.31;4973937;28;19918;-61
2021/07/17 00:14:43;;;;;;;;;;;;;;;15.99;84.09;100166.19;4974279;28;19914;-61
2021/07/17 00:17:09;;;;;;;;;;;;;;;16.00;83.98;100170.53;4973848;28;19914;-61
2021/07/17 00:19:34;;;;;;;;;;;;;;;15.99;83.94;100166.19;4974178;28;20001;-61
2021/07/17 00:21:59;;;;;;;;;;;;;;;15.95;84.15;100173.19;4974010;28;19914;-61
2021/07/17 00:24:24;;;;;;;;;;;;;;;16.01;84.17;100172.16;4974100;28;19914;-61
2021/07/17 00:26:50;;;;;;;;;;;;;;;16.02;83.99;100168.38;4973924;28;19918;-61
2021/07/17 00:29:15;;;;;;;;;;;;;;;15.96;84.33;100162.09;4974139;28;20419;-61
2021/07/17 00:31:40;;;;;;;;;;;;;;;15.99;84.30;100157.25;4973753;28;19922;-61
2021/07/17 00:34:08;;;;;;;;;;;;;;;15.92;84.71;100157.47;4974199;28;19920;-61
2021/07/17 00:36:34;;;;;;;;;;;;;;;15.90;85.09;100159.59;4974209;28;20005;-61
2021/07/17 00:38:59;;;;;;;;;;;;;;;15.96;84.75;100166.69;4978111;28;20337;-61
2021/07/17 00:41:24;;;;;;;;;;;;;;;15.94;85.08;100166.94;4977419;28;19918;-61
2021/07/17 00:43:49;;;;;;;;;;;;;;;16.00;84.78;100159.72;4977721;28;19914;-61
2021/07/17 00:46:15;;;;;;;;;;;;;;;15.90;85.32;100159.59;4977293;28;19922;-61
2021/07/17 00:48:40;;;;;;;;;;;;;;;15.86;85.64;100158.50;4977517;28;19997;-61
2021/07/17 00:51:05;;;;;;;;;;;;;;;15.89;85.77;100161.50;4977262;28;19925;-61
2021/07/17 00:53:31;;;;;;;;;;;;;;;15.92;85.51;100160.97;4977771;28;20315;-61
2021/07/17 00:55:59;;;;;;;;;;;;;;;15.88;85.73;100156.34;4977248;28;20001;-61
2021/07/17 00:58:28;;;;;;;;;;;;;;;15.85;85.51;100159.53;4976353;28;19936;-61
2021/07/17 01:00:53;;;;;;;;;;;;;;;15.86;86.06;100158.50;4975934;28;20356;-61
2021/07/17 01:03:21;;;;;;;;;;;;;;;15.89;85.46;100157.97;4976067;28;19914;-61
2021/07/17 01:05:50;;;;;;;;;;;;;;;15.84;85.78;100149.81;4976978;28;19922;-61
2021/07/17 01:08:15;;;;;;;;;;;;;;;15.85;85.94;100154.97;4976093;28;19921;-61
2021/07/17 01:10:43;;;;;;;;;;;;;;;15.83;85.99;100154.41;4975695;28;19918;-61
2021/07/17 01:13:08;;;;;;;;;;;;;;;15.88;85.40;100156.34;4977146;28;19914;-61
2021/07/17 01:15:34;;;;;;;;;;;;;;;15.90;85.40;100165.00;4976867;28;19918;-61
2021/07/17 01:17:59;;;;;;;;;;;;;;;15.91;84.79;100161.25;4977109;28;20391;-61
2021/07/17 01:20:24;;;;;;;;;;;;;;;15.84;85.01;100163.31;4976719;28;20005;-61
2021/07/17 01:22:49;;;;;;;;;;;;;;;15.88;84.43;100170.69;4976853;28;19918;-61
2021/07/17 01:25:20;;;;;;;;;;;;;;;15.88;84.58;100161.75;4975232;28;19914;-61
2021/07/17 01:27:45;;;;;;;;;;;;;;;15.93;84.18;100164.50;4976973;28;19939;-61
2021/07/17 01:30:15;;;;;;;;;;;;;;;15.85;84.63;100159.53;4978569;28;20364;-61
2021/07/17 01:32:40;;;;;;;;;;;;;;;15.84;84.63;100155.22;4957400;28;19930;-61
2021/07/17 01:35:05;;;;;;;;;;;;;;;15.92;84.36;100143.94;4956086;28;19921;-61
2021/07/17 01:37:31;;;;;;;;;;;;;;;15.89;84.15;100149.88;4957702;29;20369;-61
2021/07/17 01:39:56;;;;;;;;;;;;;;;15.89;84.30;100157.97;4957327;28;20274;-61
2021/07/17 01:42:24;;;;;;;;;;;;;;;15.86;84.71;100158.50;4957045;28;19919;-61
2021/07/17 01:44:49;;;;;;;;;;;;;;;15.85;84.55;100164.94;4957323;28;19914;-61
2021/07/17 01:47:15;;;;;;;;;;;;;;;15.90;84.22;100162.28;4955446;28;19973;-61
2021/07/17 01:49:40;;;;;;;;;;;;;;;15.91;84.05;100156.66;4957527;28;19919;-61
2021/07/17 01:52:06;;;;;;;;;;;;;;;15.88;84.30;100156.34;4956827;28;19918;-61
2021/07/17 01:54:32;;;;;;;;;;;;;;;15.87;84.07;100154.69;4957116;28;19925;-61
2021/07/17 01:56:57;;;;;;;;;;;;;;;15.89;83.84;100147.16;4956706;28;20012;-61
2021/07/17 01:59:23;;;;;;;;;;;;;;;15.87;84.11;100143.88;4965857;28;20347;-61
2021/07/17 02:01:48;;;;;;;;;;;;;;;15.82;84.36;100144.66;4974723;28;19922;-61
2021/07/17 02:04:16;;;;;;;;;;;;;;;15.84;84.35;100139.00;4976410;28;19937;-61
2021/07/17 02:06:41;;;;;;;;;;;;;;;15.78;84.56;100131.94;4975895;28;19969;-61
2021/07/17 02:09:09;;;;;;;;;;;;;;;15.74;84.91;100129.72;4976248;28;19914;-61
2021/07/17 02:11:34;;;;;;;;;;;;;;;15.78;84.65;100129.22;4975949;28;19918;-61
2021/07/17 02:14:00;;;;;;;;;;;;;;;15.82;84.58;100130.31;4976032;28;19981;-61
2021/07/17 02:16:25;;;;;;;;;;;;;;;15.79;84.41;100131.66;4975587;28;19925;-61
2021/07/17 02:18:50;;;;;;;;;;;;;;;15.81;84.56;100123.31;4974825;28;20150;-61
2021/07/17 02:21:16;;;;;;;;;;;;;;;15.77;84.54;100133.78;4975695;28;19918;-61
2021/07/17 02:23:41;;;;;;;;;;;;;;;15.81;84.55;100128.72;4976020;28;19914;-61
2021/07/17 02:26:06;;;;;;;;;;;;;;;15.79;84.89;100128.94;4975596;28;19928;-61
2021/07/17 02:28:32;;;;;;;;;;;;;;;15.79;84.74;100136.25;4975940;28;20439;-61
2021/07/17 02:31:01;;;;;;;;;;;;;;;15.81;84.74;100134.91;4974278;28;19926;-61
2021/07/17 02:33:26;;;;;;;;;;;;;;;15.80;84.85;100133.31;4976018;28;19914;-61
2021/07/17 02:35:51;;;;;;;;;;;;;;;15.77;85.26;100132.97;4975424;28;19918;-61
2021/07/17 02:38:17;;;;;;;;;;;;;;;15.70;85.34;100131.31;4974351;28;20020;-61
2021/07/17 02:40:42;;;;;;;;;;;;;;;15.77;85.47;100139.19;4975422;28;20202;-61
2021/07/17 02:43:07;;;;;;;;;;;;;;;15.80;85.17;100135.16;4975639;28;19918;-61
2021/07/17 02:45:32;;;;;;;;;;;;;;;15.81;84.86;100124.09;4975083;28;19957;-61
2021/07/17 02:47:58;;;;;;;;;;;;;;;15.71;85.48;100129.41;4975549;28;19917;-61
2021/07/17 02:50:23;;;;;;;;;;;;;;;15.83;84.90;100130.09;4975301;28;19918;-61
2021/07/17 02:52:51;;;;;;;;;;;;;;;15.69;85.45;100121.53;4975554;28;19910;-61
2021/07/17 02:55:16;;;;;;;;;;;;;;;15.77;85.62;100122.16;4973828;28;20324;-60
2021/07/17 02:57:42;;;;;;;;;;;;;;;15.68;86.06;100121.78;4974092;28;20119;-61
2021/07/17 03:00:08;;;;;;;;;;;;;;;15.66;86.11;100113.13;4974300;28;19968;-62
2021/07/17 03:02:33;;;;;;;;;;;;;;;15.67;85.94;100120.94;4975470;28;19961;-61
2021/07/17 03:04:58;;;;;;;;;;;;;;;15.62;86.25;100120.91;4975093;28;20005;-61
2021/07/17 03:07:23;;;;;;;;;;;;;;;15.68;86.01;100116.38;4974822;28;19918;-61
2021/07/17 03:09:49;;;;;;;;;;;;;;;15.62;86.25;100112.78;4975233;28;20377;-61
2021/07/17 03:12:14;;;;;;;;;;;;;;;15.60;86.38;100114.13;4974648;28;19973;-61
2021/07/17 03:14:42;;;;;;;;;;;;;;;15.65;86.20;100114.16;4974941;28;20005;-61
2021/07/17 03:17:07;;;;;;;;;;;;;;;15.66;86.24;100111.22;4974578;28;19925;-61
2021/07/17 03:19:33;;;;;;;;;;;;;;;15.63;86.32;100110.94;4974977;28;19914;-61
2021/07/17 03:21:58;;;;;;;;;;;;;;;15.62;86.46;100114.69;4974513;28;19918;-61
2021/07/17 03:24:23;;;;;;;;;;;;;;;15.60;86.54;100116.81;4974888;28;19921;-61
2021/07/17 03:26:48;;;;;;;;;;;;;;;15.57;86.77;100111.94;4976903;28;20431;-61
2021/07/17 03:29:14;;;;;;;;;;;;;;;15.56;86.74;100111.13;4975240;28;19914;-61
2021/07/17 03:31:39;;;;;;;;;;;;;;;15.58;86.56;100105.47;4975051;28;19949;-61
2021/07/17 03:34:05;;;;;;;;;;;;;;;15.63;86.30;100110.94;4976097;28;19921;-61
2021/07/17 03:36:33;;;;;;;;;;;;;;;15.63;86.04;100111.75;4974622;28;20068;-61
2021/07/17 03:38:58;;;;;;;;;;;;;;;15.67;85.96;100112.84;4973576;28;19968;-61
2021/07/17 03:41:23;;;;;;;;;;;;;;;15.63;86.21;100108.22;4974332;28;20012;-61
2021/07/17 03:43:49;;;;;;;;;;;;;;;15.61;86.49;100113.88;4974606;28;19926;-61
2021/07/17 03:46:14;;;;;;;;;;;;;;;15.64;86.41;100113.34;4974144;28;20420;-61
2021/07/17 03:48:39;;;;;;;;;;;;;;;15.65;86.40;100115.00;4974430;28;19918;-61
2021/07/17 03:51:05;;;;;;;;;;;;;;;15.61;86.38;100113.06;4974137;28;19918;-61
2021/07/17 03:53:30;;;;;;;;;;;;;;;15.63;86.50;100121.75;4974612;28;19914;-61
2021/07/17 03:55:55;;;;;;;;;;;;;;;15.78;85.97;100118.41;4974211;28;20316;-61
2021/07/17 03:58:24;;;;;;;;;;;;;;;15.66;86.45;100116.63;4974422;28;19914;-61
2021/07/17 04:00:49;;;;;;;;;;;;;;;15.66;86.02;100113.94;4974112;28;20018;-61
2021/07/17 04:03:14;;;;;;;;;;;;;;;15.67;86.29;100123.66;4974518;28;20008;-61
2021/07/17 04:05:40;;;;;;;;;;;;;;;15.61;86.70;100118.47;4974251;28;20008;-61
2021/07/17 04:08:05;;;;;;;;;;;;;;;15.58;86.75;100117.09;4974369;28;20352;-61
2021/07/17 04:10:31;;;;;;;;;;;;;;;15.62;86.74;100110.09;4974052;28;19918;-61
2021/07/17 04:12:56;;;;;;;;;;;;;;;15.58;87.02;100114.38;4977233;28;19914;-61
2021/07/17 04:15:21;;;;;;;;;;;;;;;15.62;86.90;100115.50;4977838;28;19943;-61
2021/07/17 04:17:47;;;;;;;;;;;;;;;15.60;87.13;100123.06;4978463;28;20412;-61
2021/07/17 04:20:15;;;;;;;;;;;;;;;15.56;87.17;100119.22;4977822;28;19964;-61
2021/07/17 04:22:40;;;;;;;;;;;;;;;15.56;87.61;100119.22;4977078;28;19921;-61
2021/07/17 04:25:09;;;;;;;;;;;;;;;15.65;87.18;100117.72;4977725;28;19914;-61
2021/07/17 04:27:34;;;;;;;;;;;;;;;15.58;87.57;100125.19;4977968;28;19914;-61
2021/07/17 04:29:59;;;;;;;;;;;;;;;15.59;87.58;100131.41;4978219;28;20484;-61
2021/07/17 04:32:24;;;;;;;;;;;;;;;15.63;87.44;100127.94;4977560;28;19922;-61
2021/07/17 04:34:50;;;;;;;;;;;;;;;15.62;87.52;100126.31;4978085;28;19997;-62
2021/07/17 04:37:18;;;;;;;;;;;;;;;15.65;87.42;100117.72;4977573;28;20379;-61
2021/07/17 04:39:43;;;;;;;;;;;;;;;15.70;87.32;100127.75;4978066;28;20072;-61
2021/07/17 04:42:09;;;;;;;;;;;;;;;15.69;87.40;100126.94;4977427;28;20372;-61
2021/07/17 04:44:34;;;;;;;;;;;;;;;15.72;87.03;100131.88;4978023;28;20008;-61
2021/07/17 04:46:59;;;;;;;;;;;;;;;15.72;87.21;100139.97;4977206;28;19918;-61
2021/07/17 04:49:25;;;;;;;;;;;;;;;15.77;86.89;100139.19;4977727;28;19914;-61
2021/07/17 04:51:50;;;;;;;;;;;;;;;15.76;87.16;100134.06;4977309;28;19973;-61
2021/07/17 04:54:15;;;;;;;;;;;;;;;15.78;87.14;100134.63;4977673;28;19914;-61
2021/07/17 04:56:40;;;;;;;;;;;;;;;15.73;87.46;100138.91;4977227;28;20376;-61
2021/07/17 04:59:06;;;;;;;;;;;;;;;15.74;87.42;100140.53;4977606;28;19914;-61
2021/07/17 05:01:31;;;;;;;;;;;;;;;15.82;87.32;100136.53;4977333;28;19921;-61
2021/07/17 05:03:56;;;;;;;;;;;;;;;15.79;87.30;100131.66;4977365;28;19918;-61
2021/07/17 05:06:22;;;;;;;;;;;;;;;15.80;87.50;100133.31;4977169;28;19918;-61
2021/07/17 05:08:47;;;;;;;;;;;;;;;15.84;87.10;100129.00;4977406;28;20394;-61
2021/07/17 05:11:12;;;;;;;;;;;;;;;15.89;86.89;100133.66;4975138;28;19927;-61
2021/07/17 05:13:37;;;;;;;;;;;;;;;15.94;86.62;100128.28;4977084;28;19945;-61
2021/07/17 05:16:03;;;;;;;;;;;;;;;15.88;87.15;100132.84;4976908;28;20001;-61
2021/07/17 05:18:28;;;;;;;;;;;;;;;15.97;86.76;100133.16;4977258;28;19968;-61
2021/07/17 05:20:53;;;;;;;;;;;;;;;15.95;86.92;100122.63;4976696;28;19918;-61
2021/07/17 05:23:18;;;;;;;;;;;;;;;15.95;87.10;100124.53;4976696;28;19914;-61
2021/07/17 05:25:50;;;;;;;;;;;;;;;15.98;87.18;100129.41;4976658;28;20287;-61
2021/07/17 05:28:15;;;;;;;;;;;;;;;15.94;87.27;100123.69;4977251;28;20303;-61
2021/07/17 05:30:41;;;;;;;;;;;;;;;15.96;86.83;100123.44;4978670;28;19918;-61
2021/07/17 05:33:06;;;;;;;;;;;;;;;15.96;87.33;100126.16;4977026;28;20277;-61
2021/07/17 05:35:31;;;;;;;;;;;;;;;15.90;87.27;100133.41;4976551;28;19976;-61
2021/07/17 05:37:57;;;;;;;;;;;;;;;15.92;87.55;100138.53;4977210;28;19941;-61
2021/07/17 05:40:22;;;;;;;;;;;;;;;15.95;87.74;100135.34;4976292;28;19918;-61
2021/07/17 05:42:48;;;;;;;;;;;;;;;15.98;87.59;100137.53;4976478;28;19989;-61
2021/07/17 05:45:13;;;;;;;;;;;;;;;15.94;88.17;100131.81;4976056;28;19913;-61
2021/07/17 05:47:38;;;;;;;;;;;;;;;15.94;88.09;100136.41;4976509;28;19918;-61
2021/07/17 05:50:04;;;;;;;;;;;;;;;15.94;88.58;100133.69;4976223;28;19968;-61
2021/07/17 05:52:32;;;;;;;;;;;;;;;15.87;88.60;100144.69;4976558;28;20372;-61
2021/07/17 05:54:57;;;;;;;;;;;;;;;15.96;88.69;100134.25;4976409;28;19918;-61
2021/07/17 05:57:22;;;;;;;;;;;;;;;15.88;89.02;100129.31;4975883;28;20368;-61
2021/07/17 05:59:48;;;;;;;;;;;;;;;15.99;88.19;100125.63;4976520;28;20307;-61
2021/07/17 06:02:13;;;;;;;;;;;;;;;16.10;88.25;100137.34;4975850;28;19918;-61
2021/07/17 06:04:39;;;;;;;;;;;;;;;16.03;88.60;100129.47;4976154;28;19921;-61
2021/07/17 06:07:04;;;;;;;;;;;;;;;15.95;89.12;100140.75;4975896;28;20025;-61
2021/07/17 06:09:29;;;;;;;;;;;;;;;15.92;89.64;100141.25;4976040;28;20337;-61
2021/07/17 06:11:55;;;;;;;;;;;;;;;15.90;89.57;100133.41;4975569;28;19918;-61
2021/07/17 06:14:22;;;;;;;;;;;;;;;15.90;89.40;100136.09;4975951;28;19910;-61
2021/07/17 06:16:48;;;;;;;;;;;;;;;15.84;89.96;100141.69;4975498;28;19922;-61
2021/07/17 06:19:13;;;;;;;;;;;;;;;15.86;89.82;100139.56;4976077;28;19914;-61
2021/07/17 06:21:39;;;;;;;;;;;;;;;15.93;89.35;100143.69;4975455;28;19914;-61
2021/07/17 06:24:04;;;;;;;;;;;;;;;15.90;89.73;100146.06;4975780;28;19924;-61
2021/07/17 06:26:29;;;;;;;;;;;;;;;15.91;89.56;100147.72;4975372;28;20372;-61
2021/07/17 06:28:55;;;;;;;;;;;;;;;15.96;89.55;100142.38;4975989;28;19921;-61
2021/07/17 06:31:20;;;;;;;;;;;;;;;15.96;89.34;100148.59;4975455;28;19961;-61
2021/07/17 06:33:46;;;;;;;;;;;;;;;15.96;89.26;100148.59;4975242;28;19921;-61
2021/07/17 06:36:17;;;;;;;;;;;;;;;16.12;89.03;100152.25;4974709;28;19922;-61
2021/07/17 06:38:43;;;;;;;;;;;;;;;16.04;89.05;100155.41;4975556;28;19914;-61
2021/07/17 06:41:08;;;;;;;;;;;;;;;16.08;88.93;100156.53;4975068;28;19979;-61
2021/07/17 06:43:35;;;;;;;;;;;;;;;16.02;89.48;100157.56;4975424;28;19913;-61
2021/07/17 06:46:04;;;;;;;;;;;;;;;15.99;89.19;100154.56;4975246;28;19918;-61
2021/07/17 06:48:29;;;;;;;;;;;;;;;16.09;88.68;100168.97;4973994;28;19925;-61
2021/07/17 06:50:58;;;;;;;;;;;;;;;16.06;88.42;100164.09;4975110;28;19918;-61
2021/07/17 06:53:23;;;;;;;;;;;;;;;16.04;88.73;100160.81;4975345;28;19957;-61
2021/07/17 06:55:48;;;;;;;;;;;;;;;16.12;88.42;100162.25;4974877;28;20391;-61
2021/07/17 06:58:13;;;;;;;;;;;;;;;16.15;88.25;100162.56;4975372;28;19909;-61
2021/07/17 07:00:39;;;;;;;;;;;;;;;16.11;88.20;100166.03;4974690;28;19965;-61
2021/07/17 07:03:04;;;;;;;;;;;;;;;16.15;88.18;100172.56;4975351;28;19921;-62
2021/07/17 07:05:29;;;;;;;;;;;;;;;16.24;87.53;100175.63;4975005;28;19969;-61
2021/07/17 07:07:55;;;;;;;;;;;;;;;16.23;87.90;100179.41;4975255;28;19918;-61
2021/07/17 07:10:20;;;;;;;;;;;;;;;16.24;87.49;100171.00;4974952;28;19972;-61
2021/07/17 07:12:49;;;;;;;;;;;;;;;16.34;87.00;100167.59;4975131;28;20280;-61
2021/07/17 07:15:14;;;;;;;;;;;;;;;16.26;87.36;100174.28;4974753;28;19960;-61
2021/07/17 07:17:39;;;;;;;;;;;;;;;16.40;86.80;100169.28;4975150;28;19914;-61
2021/07/17 07:20:05;;;;;;;;;;;;;;;16.53;86.62;100178.84;4977103;28;20371;-61
2021/07/17 07:22:30;;;;;;;;;;;;;;;16.34;87.14;100178.41;4975017;28;20012;-61
2021/07/17 07:24:56;;;;;;;;;;;;;;;16.27;87.51;100191.31;4974953;28;20412;-62
2021/07/17 07:27:21;;;;;;;;;;;;;;;16.48;86.43;100187.75;4974520;28;19925;-62
2021/07/17 07:29:46;;;;;;;;;;;;;;;16.36;87.11;100189.78;4975060;28;19916;-61
2021/07/17 07:32:12;;;;;;;;;;;;;;;16.47;86.54;100187.97;4974545;28;20368;-61
2021/07/17 07:34:40;;;;;;;;;;;;;;;16.37;86.75;100202.22;4974763;28;19986;-61
2021/07/17 07:37:05;;;;;;;;;;;;;;;16.38;86.68;100193.06;4974333;28;19946;-61
2021/07/17 07:39:30;;;;;;;;;;;;;;;16.43;86.03;100195.00;4974729;28;20435;-61
2021/07/17 07:41:56;;;;;;;;;;;;;;;16.41;85.89;100187.13;4974407;28;19972;-61
2021/07/17 07:44:21;;;;;;;;;;;;;;;16.55;85.04;100195.66;4973381;28;19964;-61
2021/07/17 07:46:46;;;;;;;;;;;;;;;16.54;85.36;100197.50;4974261;28;20365;-61
2021/07/17 07:49:12;;;;;;;;;;;;;;;16.66;84.71;100201.94;4974764;28;19918;-61
2021/07/17 07:51:37;;;;;;;;;;;;;;;16.59;84.84;100200.25;4974142;28;19922;-61
2021/07/17 07:54:03;;;;;;;;;;;;;;;16.72;84.33;100203.59;4974599;28;19914;-61
2021/07/17 07:56:31;;;;;;;;;;;;;;;16.74;83.78;100199.56;4974030;28;19965;-61
2021/07/17 07:58:56;;;;;;;;;;;;;;;16.99;81.97;100198.94;4973503;28;19961;-61
2021/07/17 08:01:21;;;;;;;;;;;;;;;16.93;82.23;100196.50;4974084;28;19976;-61
2021/07/17 08:03:47;;;;;;;;;;;;;;;17.11;81.58;100200.66;4974487;28;19929;-61
2021/07/17 08:06:12;;;;;;;;;;;;;;;17.13;80.90;100198.50;4973981;28;20254;-61
2021/07/17 08:08:37;;;;;;;;;;;;;;;17.12;80.71;100194.16;4974633;28;20060;-61
2021/07/17 08:11:03;;;;;;;;;;;;;;;17.32;79.94;100194.25;4974311;28;20384;-60
2021/07/17 08:13:28;;;;;;;;;;;;;;;17.53;78.64;100197.88;4974402;28;19910;-61
2021/07/17 08:15:54;;;;;;;;;;;;;;;17.59;77.84;100204.94;4974076;28;19945;-61
2021/07/17 08:18:23;;;;;;;;;;;;;;;17.54;78.16;100193.28;4974600;28;19914;-61
2021/07/17 08:20:48;;;;;;;;;;;;;;;17.78;76.55;100194.47;4973901;28;20288;-61
2021/07/17 08:23:16;;;;;;;;;;;;;;;18.15;75.72;100204.34;4973149;28;19921;-61
2021/07/17 08:25:42;;;;;;;;;;;;;;;18.58;73.32;100202.19;4973788;28;19918;-61
2021/07/17 08:28:07;;;;;;;;;;;;;;;20.39;66.80;100199.41;4974127;28;19917;-61
2021/07/17 08:30:33;;;;;;;;;;;;;;;20.63;65.17;100201.41;4973262;28;19929;-61
2021/07/17 08:32:58;;;;;;;;;;;;;;;22.65;58.02;100194.78;4972890;28;19914;-61
2021/07/17 08:35:24;;;;;;;;;;;;;;;20.92;63.43;100197.84;4973868;28;20399;-61
2021/07/17 08:37:49;;;;;;;;;;;;;;;21.12;62.99;100203.13;4974308;28;20364;-61
2021/07/17 08:40:14;;;;;;;;;;;;;;;20.89;62.47;100193.78;4972656;28;19913;-61
2021/07/17 08:42:43;;;;;;;;;;;;;;;21.49;61.32;100196.16;4974024;28;19953;-61
2021/07/17 08:45:09;;;;;;;;;;;;;;;23.78;53.99;100198.94;4973517;28;19914;-61
2021/07/17 08:47:39;;;;;;;;;;;;;;;23.81;53.37;100198.34;4973928;28;19949;-62
2021/07/17 08:50:05;;;;;;;;;;;;;;;24.40;52.62;100197.53;4972481;28;19914;-62
2021/07/17 08:52:31;;;;;;;;;;;;;;;23.95;53.65;100192.81;4974156;28;19913;-62
2021/07/17 08:55:02;;;;;;;;;;;;;;;22.52;57.93;100196.38;4974097;28;20376;-60
2021/07/17 08:57:27;;;;;;;;;;;;;;;21.91;58.88;100187.16;4974185;28;20356;-61
2021/07/17 08:59:53;;;;;;;;;;;;;;;22.39;57.34;100188.94;4977445;28;20008;-62
2021/07/17 09:02:19;;;;;;;;;;;;;;;20.92;62.52;100192.41;4976962;28;19957;-62
2021/07/17 09:04:47;;;;;;;;;;;;;;;21.97;59.19;100186.00;4977310;28;20004;-61
2021/07/17 09:07:12;;;;;;;;;;;;;;;22.93;57.00;100179.25;4977022;28;19918;-61
2021/07/17 09:09:38;;;;;;;;;;;;;;;23.73;55.10;100190.84;4977523;28;20009;-61
2021/07/17 09:12:24;;;;;;;;;;;;;;;24.10;52.43;100195.22;4979021;28;20013;-61
2021/07/17 09:14:49;;;;;;;;;;;;;;;25.12;51.37;100191.84;4976708;28;20368;-62
2021/07/17 09:17:27;;;;;;;;;;;;;;;24.53;52.34;100182.97;4975522;28;19965;-62
2021/07/17 09:19:56;;;;;;;;;;;;;;;23.02;56.55;100176.69;4977504;28;19910;-62
2021/07/17 09:22:30;;;;;;;;;;;;;;;22.43;58.15;100189.97;4975449;28;19925;-62
2021/07/17 09:25:05;;;;;;;;;;;;;;;21.72;59.87;100178.97;4975747;28;20013;-62
2021/07/17 09:27:30;;;;;;;;;;;;;;;22.21;59.16;100181.56;4976704;28;20005;-61
2021/07/17 09:29:55;;;;;;;;;;;;;;;23.50;56.15;100183.66;4975746;28;20017;-61
2021/07/17 09:32:21;;;;;;;;;;;;;;;24.66;52.66;100187.59;4976388;28;19973;-60
2021/07/17 09:34:49;;;;;;;;;;;;;;;24.21;53.06;100193.06;4977011;28;19914;-61
2021/07/17 09:37:15;;;;;;;;;;;;;;;22.94;56.85;100185.53;4976322;28;19914;-60
2021/07/17 09:39:43;;;;;;;;;;;;;;;22.59;57.83;100191.34;4976975;28;19961;-60
2021/07/17 09:42:11;;;;;;;;;;;;;;;22.24;58.78;100183.72;4976320;28;20004;-61
2021/07/17 09:44:36;;;;;;;;;;;;;;;21.85;59.66;100190.28;4976726;28;19914;-60
2021/07/17 09:47:03;;;;;;;;;;;;;;;21.80;60.16;100191.16;4975939;28;19924;-61
2021/07/17 09:49:28;;;;;;;;;;;;;;;21.75;59.71;100180.31;4976644;28;19918;-60
2021/07/17 09:52:12;;;;;;;;;;;;;;;21.58;60.65;100188.97;4975661;28;19922;-60
2021/07/17 09:54:38;;;;;;;;;;;;;;;22.81;57.28;100184.38;4976384;28;20365;-61
2021/07/17 09:57:03;;;;;;;;;;;;;;;23.55;54.59;100178.88;4976153;28;19925;-61
2021/07/17 09:59:29;;;;;;;;;;;;;;;24.27;54.10;100177.31;4970232;28;20333;-61
2021/07/17 10:01:54;;;;;;;;;;;;;;;23.56;55.80;100174.22;4956849;28;19969;-60
2021/07/17 10:04:19;;;;;;;;;;;;;;;22.64;58.27;100178.69;4972068;28;19937;-60
2021/07/17 10:06:49;;;;;;;;;;;;;;;22.45;58.88;100176.81;4956659;28;20300;-60
2021/07/17 10:09:14;;;;;;;;;;;;;;;22.24;59.66;100178.25;4955924;28;19914;-60
2021/07/17 10:11:40;;;;;;;;;;;;;;;21.89;61.23;100177.63;4956705;28;20399;-60
2021/07/17 10:14:18;;;;;;;;;;;;;;;22.04;60.39;100180.16;4956691;28;20310;-60
2021/07/17 10:16:43;;;;;;;;;;;;;;;21.35;62.57;100181.59;4956486;28;20365;-60
2021/07/17 10:19:08;;;;;;;;;;;;;;;21.68;62.21;100177.13;4956955;28;19921;-60
2021/07/17 10:21:34;;;;;;;;;;;;;;;22.09;61.18;100180.09;4971328;28;20306;-60
2021/07/17 10:23:59;;;;;;;;;;;;;;;23.36;57.71;100175.44;4956772;28;19961;-60
2021/07/17 10:26:25;;;;;;;;;;;;;;;23.03;58.36;100175.56;4971256;28;19922;-60
2021/07/17 10:28:50;;;;;;;;;;;;;;;21.79;61.25;100180.50;4971574;28;19915;-60
2021/07/17 10:31:15;;;;;;;;;;;;;;;21.19;63.98;100189.13;4971251;28;19914;-60
2021/07/17 10:33:41;;;;;;;;;;;;;;;21.02;65.13;100189.59;4956644;28;20365;-60
2021/07/17 10:36:07;;;;;;;;;;;;;;;21.11;65.26;100191.38;4956385;28;19984;-60
2021/07/17 10:38:32;;;;;;;;;;;;;;;21.03;65.44;100189.31;4971432;28;19918;-61
2021/07/17 10:40:58;;;;;;;;;;;;;;;20.83;65.53;100195.75;4970921;28;19946;-60
2021/07/17 10:43:23;;;;;;;;;;;;;;;20.66;66.38;100195.38;4956528;28;19910;-60
2021/07/17 10:45:48;;;;;;;;;;;;;;;20.64;66.56;100203.00;4956035;28;19918;-60
2021/07/17 10:48:21;;;;;;;;;;;;;;;20.29;68.34;100194.00;4956084;28;20379;-60
2021/07/17 10:50:46;;;;;;;;;;;;;;;20.50;67.36;100196.59;4955928;28;19918;-60
2021/07/17 10:53:50;;;;;;;;;;;;;;;20.26;68.02;100187.22;4970998;28;19937;-61
2021/07/17 10:56:27;;;;;;;;;;;;;;;20.32;68.59;100193.47;4953545;28;20373;-61
2021/07/17 10:58:53;;;;;;;;;;;;;;;20.10;68.76;100196.59;4953925;29;20428;-61
2021/07/17 11:01:19;;;;;;;;;;;;;;;19.96;69.97;100198.31;4954626;28;19927;-60
2021/07/17 11:03:44;;;;;;;;;;;;;;;19.94;69.95;100195.88;4955969;28;19914;-60
2021/07/17 11:06:21;;;;;;;;;;;;;;;19.80;69.74;100194.88;4955497;28;19925;-60
2021/07/17 11:08:46;;;;;;;;;;;;;;;19.29;71.96;100190.41;4956055;28;19915;-60
2021/07/17 11:11:41;;;;;;;;;;;;;;;19.35;71.88;100192.03;4969884;28;19918;-61
2021/07/17 11:14:06;;;;;;;;;;;;;;;19.70;70.88;100189.50;4962261;28;20012;-60
2021/07/17 11:16:38;;;;;;;;;;;;;;;19.26;72.72;100187.44;4974639;28;20065;-60
2021/07/17 11:19:15;;;;;;;;;;;;;;;19.36;72.06;100187.41;4975262;28;19964;-60
2021/07/17 11:21:41;;;;;;;;;;;;;;;19.30;72.13;100193.97;4974368;28;20016;-60
2021/07/17 11:24:06;;;;;;;;;;;;;;;19.56;71.72;100184.59;4974885;28;19977;-60
2021/07/17 11:26:31;;;;;;;;;;;;;;;19.84;70.32;100195.94;4974571;28;19929;-60
2021/07/17 11:29:06;;;;;;;;;;;;;;;19.92;70.63;100195.34;4973693;28;20344;-60
2021/07/17 11:31:31;;;;;;;;;;;;;;;19.68;71.27;100208.00;4974564;28;20262;-60
2021/07/17 11:34:20;;;;;;;;;;;;;;;19.71;71.10;100200.06;4973594;28;20368;-61
2021/07/17 11:36:53;;;;;;;;;;;;;;;19.72;70.98;100203.59;4966637;28;19914;-60
2021/07/17 11:39:19;;;;;;;;;;;;;;;19.27;72.22;100191.78;4974769;28;19924;-60
2021/07/17 11:41:44;;;;;;;;;;;;;;;19.47;71.74;100197.19;4974392;28;20004;-60
2021/07/17 11:44:09;;;;;;;;;;;;;;;19.40;72.45;100199.38;4974626;28;20380;-60
2021/07/17 11:46:35;;;;;;;;;;;;;;;19.61;72.01;100198.19;4974381;28;20317;-60
2021/07/17 11:49:03;;;;;;;;;;;;;;;19.60;71.56;100202.00;4973338;28;19961;-60
2021/07/17 11:51:28;;;;;;;;;;;;;;;19.57;71.00;100201.75;4974395;28;20347;-60
2021/07/17 11:53:59;;;;;;;;;;;;;;;19.64;71.22;100204.16;4974557;28;19949;-60
2021/07/17 11:56:24;;;;;;;;;;;;;;;20.00;70.59;100199.38;4974350;28;20006;-60
2021/07/17 11:58:50;;;;;;;;;;;;;;;20.26;69.75;100197.31;4974862;28;19945;-60
2021/07/17 12:01:16;;;;;;;;;;;;;;;20.53;68.68;100199.53;4974385;28;19918;-60
2021/07/17 12:03:42;;;;;;;;;;;;;;;20.26;69.17;100192.66;4974864;28;19957;-60
2021/07/17 12:06:07;;;;;;;;;;;;;;;20.48;68.68;100189.50;4972920;28;20375;-61
2021/07/17 12:08:32;;;;;;;;;;;;;;;20.07;69.52;100189.00;4974558;28;20009;-60
2021/07/17 12:10:58;;;;;;;;;;;;;;;20.40;68.54;100201.00;4974022;28;19922;-60
2021/07/17 12:13:24;;;;;;;;;;;;;;;20.28;69.19;100195.13;4974553;28;20000;-60
2021/07/17 12:15:49;;;;;;;;;;;;;;;20.12;69.81;100196.31;4974215;28;19925;-60
2021/07/17 12:18:18;;;;;;;;;;;;;;;20.32;69.26;100185.28;4974373;28;20272;-62
2021/07/17 12:20:44;;;;;;;;;;;;;;;20.16;69.76;100186.50;4972770;28;19942;-61
2021/07/17 12:23:16;;;;;;;;;;;;;;;20.18;69.64;100187.03;4974456;28;19914;-60
2021/07/17 12:25:45;;;;;;;;;;;;;;;20.28;69.19;100194.31;4973985;28;19918;-59
2021/07/17 12:28:10;;;;;;;;;;;;;;;19.88;70.35;100186.13;4974375;28;19976;-60
2021/07/17 12:30:40;;;;;;;;;;;;;;;20.00;70.45;100192.03;4974257;28;20376;-60